Time;durP1;ratioP1;P1;durP2;ratioP2;P2;SDS_P1;SDS_P2;PMS_P1;PMS_P2;Temp;Humidity;BMP_temperature;BMP_pressure;BME280_temperature;BME280_humidity;BME280_pressure;Samples;Min_cycle;Max_cycle;Signal;HPM_P1;HPM_P2
2022/06/03 00:00:25;;;;;;;2.90;2.10;;;10.30;99.90;;;;;;7393699;19;20344;-85
2022/06/03 00:08:59;;;;;;;2.00;1.90;;;10.20;99.90;;;;;;7383070;19;20360;-80
2022/06/03 00:11:50;;;;;;;1.90;1.80;;;10.20;99.90;;;;;;7384587;19;20339;-79
2022/06/03 00:14:36;;;;;;;2.03;1.92;;;10.10;99.90;;;;;;7383011;19;20933;-80
2022/06/03 00:17:20;;;;;;;2.30;2.17;;;10.00;99.90;;;;;;7385583;19;20368;-80
2022/06/03 00:20:10;;;;;;;2.78;2.58;;;9.90;99.90;;;;;;7382788;19;20412;-79
2022/06/03 00:23:02;;;;;;;2.67;2.47;;;9.90;99.90;;;;;;7382479;19;20344;-79
2022/06/03 00:26:06;;;;;;;1.80;1.70;;;9.80;99.90;;;;;;7377961;19;20364;-78
2022/06/03 00:28:40;;;;;;;1.70;1.60;;;9.80;99.90;;;;;;7385052;19;20352;-79
2022/06/03 00:31:13;;;;;;;2.08;1.98;;;9.90;99.90;;;;;;7381869;19;20345;-79
2022/06/03 00:33:57;;;;;;;1.95;1.85;;;9.90;99.90;;;;;;7381842;19;20352;-79
2022/06/03 00:36:31;;;;;;;2.20;2.00;;;9.80;99.90;;;;;;7381907;19;22099;-80
2022/06/03 00:39:23;;;;;;;1.70;1.60;;;9.80;99.90;;;;;;7379062;19;20442;-79
2022/06/03 00:42:03;;;;;;;2.42;2.20;;;9.80;99.90;;;;;;7381153;19;20414;-79
2022/06/03 00:45:08;;;;;;;1.90;1.80;;;9.80;99.90;;;;;;7381305;19;20368;-79
2022/06/03 00:47:55;;;;;;;2.60;2.40;;;9.70;99.90;;;;;;7378880;19;20384;-79
2022/06/03 00:50:50;;;;;;;2.30;2.20;;;9.70;99.90;;;;;;7381747;19;21325;-79
2022/06/03 00:53:38;;;;;;;2.80;2.60;;;9.60;99.90;;;;;;7380445;19;20456;-79
2022/06/03 00:56:41;;;;;;;2.25;2.13;;;9.50;99.90;;;;;;7379926;19;20416;-79
2022/06/03 00:59:21;;;;;;;2.10;2.00;;;9.40;99.90;;;;;;7377984;19;20340;-79
2022/06/03 01:01:59;;;;;;;3.10;2.40;;;9.40;99.90;;;;;;7379512;19;21341;-79
2022/06/03 01:04:53;;;;;;;3.05;2.80;;;9.30;99.90;;;;;;7382270;19;20356;-79
2022/06/03 01:07:31;;;;;;;2.13;2.00;;;9.30;99.90;;;;;;7377064;19;20356;-79
2022/06/03 01:10:10;;;;;;;2.72;2.53;;;9.20;99.90;;;;;;7381249;19;20436;-79
2022/06/03 01:13:04;;;;;;;2.37;2.17;;;9.10;99.90;;;;;;7379820;19;20334;-79
2022/06/03 01:15:42;;;;;;;2.07;1.97;;;9.10;99.90;;;;;;7380357;19;20340;-79
2022/06/03 01:18:27;;;;;;;2.97;2.78;;;9.10;99.90;;;;;;7379545;19;20368;-78
2022/06/03 01:21:29;;;;;;;3.00;2.70;;;9.00;99.90;;;;;;7378390;19;20620;-78
2022/06/03 01:24:24;;;;;;;2.80;2.60;;;9.00;99.90;;;;;;7379286;19;20332;-78
2022/06/03 01:27:10;;;;;;;2.37;2.20;;;8.90;99.90;;;;;;7375867;19;20384;-78
2022/06/03 01:29:57;;;;;;;2.45;2.25;;;8.80;99.90;;;;;;7379118;19;20849;-78
2022/06/03 01:33:00;;;;;;;3.10;2.90;;;8.90;99.90;;;;;;7378040;19;20381;-78
2022/06/03 01:36:06;;;;;;;2.70;2.50;;;8.80;99.90;;;;;;7378188;19;20360;-78
2022/06/03 01:39:05;;;;;;;2.38;2.17;;;8.70;99.90;;;;;;7377125;19;20378;-78
2022/06/03 01:42:09;;;;;;;2.67;2.47;;;8.70;99.90;;;;;;7378395;19;21192;-80
2022/06/03 01:44:54;;;;;;;3.15;2.95;;;8.80;99.90;;;;;;7379863;19;20370;-79
2022/06/03 01:47:38;;;;;;;2.80;2.60;;;8.80;99.90;;;;;;7374604;19;20357;-79
2022/06/03 01:50:23;;;;;;;2.72;2.53;;;8.80;99.90;;;;;;7378645;19;20633;-80
2022/06/03 01:52:56;;;;;;;2.45;2.25;;;8.80;99.90;;;;;;7381744;19;20344;-79
2022/06/03 01:55:40;;;;;;;2.90;2.70;;;8.70;99.90;;;;;;7380238;19;20348;-79
2022/06/03 01:58:35;;;;;;;2.20;2.10;;;8.70;99.90;;;;;;7379274;19;20344;-79
2022/06/03 02:01:37;;;;;;;2.35;2.17;;;8.70;99.90;;;;;;7374184;19;21152;-79
2022/06/03 02:04:33;;;;;;;2.95;2.75;;;8.70;99.90;;;;;;7377022;19;20373;-79
2022/06/03 02:07:27;;;;;;;2.65;2.45;;;8.50;99.90;;;;;;7376789;19;20389;-78
2022/06/03 02:10:27;;;;;;;2.78;2.58;;;8.50;99.90;;;;;;7376756;19;20415;-79
2022/06/03 02:12:57;;;;;;;2.55;2.35;;;8.50;99.90;;;;;;7377280;19;20785;-78
2022/06/03 02:15:41;;;;;;;3.22;2.95;;;8.50;99.90;;;;;;7375925;19;21206;-78
2022/06/03 02:18:28;;;;;;;2.65;2.45;;;8.50;99.90;;;;;;7372439;19;20436;-78
2022/06/03 02:21:20;;;;;;;2.65;2.45;;;8.50;99.90;;;;;;7376554;19;20387;-78
2022/06/03 02:24:24;;;;;;;2.50;2.30;;;8.50;99.90;;;;;;7377602;19;20360;-78
2022/06/03 02:27:24;;;;;;;2.43;2.27;;;8.40;99.90;;;;;;7377679;19;20474;-78
2022/06/03 02:30:27;;;;;;;2.95;2.75;;;8.40;99.90;;;;;;7377382;19;20356;-78
2022/06/03 02:33:26;;;;;;;3.08;2.88;;;8.40;99.90;;;;;;7275475;19;2004536;-79
2022/06/03 02:36:10;;;;;;;2.88;2.67;;;8.40;99.90;;;;;;7376487;19;20340;-79
2022/06/03 02:38:58;;;;;;;2.42;2.30;;;8.30;99.90;;;;;;7378704;19;20373;-78
2022/06/03 02:41:36;;;;;;;2.50;2.30;;;8.30;99.90;;;;;;7376146;19;20364;-78
2022/06/03 02:44:39;;;;;;;2.53;2.33;;;8.30;99.90;;;;;;7376926;19;20348;-78
2022/06/03 02:47:47;;;;;;;6.45;5.75;;;8.20;99.90;;;;;;7374708;19;20363;-78
2022/06/03 02:50:51;;;;;;;3.30;3.00;;;8.20;99.90;;;;;;7376974;19;20349;-78
2022/06/03 02:53:31;;;;;;;2.70;2.50;;;8.20;99.90;;;;;;7376642;19;20348;-78
2022/06/03 02:56:21;;;;;;;3.13;2.83;;;8.20;99.90;;;;;;7376999;19;20728;-78
2022/06/03 02:58:53;;;;;;;2.67;2.47;;;8.20;99.90;;;;;;7377898;19;21169;-78
2022/06/03 03:01:41;;;;;;;2.60;2.40;;;8.10;99.90;;;;;;7373551;19;20877;-79
2022/06/03 03:04:29;;;;;;;2.85;2.58;;;8.20;99.90;;;;;;7374165;19;20402;-78
2022/06/03 03:07:09;;;;;;;2.30;2.10;;;8.10;99.90;;;;;;7373535;19;20992;-79
2022/06/03 03:09:55;;;;;;;3.20;2.90;;;8.10;99.90;;;;;;7376388;19;20359;-78
2022/06/03 03:12:49;;;;;;;2.40;2.30;;;8.10;99.90;;;;;;7372155;19;20964;-79
2022/06/03 03:15:45;;;;;;;2.63;2.42;;;8.00;99.90;;;;;;7375356;19;20348;-78
2022/06/03 03:18:43;;;;;;;2.65;2.45;;;8.10;99.90;;;;;;7372965;19;20352;-78
2022/06/03 03:21:46;;;;;;;2.95;2.75;;;8.10;99.90;;;;;;7375297;19;20344;-78
2022/06/03 03:24:30;;;;;;;3.00;2.80;;;8.00;99.90;;;;;;7376646;19;20410;-79
2022/06/03 03:27:02;;;;;;;3.50;3.20;;;8.00;99.90;;;;;;7376067;19;20361;-79
2022/06/03 03:30:08;;;;;;;2.83;2.63;;;8.10;99.90;;;;;;7379395;19;20446;-78
2022/06/03 03:32:57;;;;;;;2.65;2.45;;;8.20;99.90;;;;;;7372480;19;20336;-79
2022/06/03 03:35:37;;;;;;;3.10;2.90;;;8.20;99.90;;;;;;7388002;19;20336;-79
2022/06/03 03:38:25;;;;;;;3.33;3.03;;;8.30;99.90;;;;;;7389373;19;20435;-79
2022/06/03 03:41:10;;;;;;;3.40;3.10;;;8.30;99.90;;;;;;7390140;19;20352;-78
2022/06/03 03:43:52;;;;;;;3.58;3.28;;;8.40;99.90;;;;;;7389110;19;20379;-79
2022/06/03 03:46:53;;;;;;;3.38;3.08;;;8.30;99.90;;;;;;7387327;19;21040;-78
2022/06/03 03:49:37;;;;;;;3.03;2.83;;;8.40;99.90;;;;;;7375280;19;20372;-79
2022/06/03 03:52:21;;;;;;;3.50;3.20;;;8.40;99.90;;;;;;7385930;19;20334;-78
2022/06/03 03:55:01;;;;;;;3.33;3.13;;;8.60;99.90;;;;;;7388258;19;20431;-78
2022/06/03 03:57:30;;;;;;;3.10;2.90;;;8.60;99.90;;;;;;7385247;19;20372;-78
2022/06/03 04:00:40;;;;;;;2.95;2.65;;;8.70;99.90;;;;;;7388445;19;20361;-79
2022/06/03 04:03:33;;;;;;;3.55;2.65;;;8.80;99.90;;;;;;7286231;19;2004635;-77
2022/06/03 04:06:09;;;;;;;3.60;2.83;;;9.00;99.90;;;;;;7390409;19;20364;-77
2022/06/03 04:09:13;;;;;;;3.45;3.15;;;9.10;99.90;;;;;;7389143;19;20929;-77
2022/06/03 04:11:55;;;;;;;3.85;3.50;;;9.30;99.90;;;;;;7386619;19;20725;-77
2022/06/03 04:14:32;;;;;;;3.45;3.15;;;9.40;99.90;;;;;;7388900;19;20352;-78
2022/06/03 04:16:59;;;;;;;2.83;2.63;;;9.50;99.90;;;;;;7387145;19;20395;-77
2022/06/03 04:19:43;;;;;;;4.03;3.72;;;9.60;99.90;;;;;;7386906;19;20352;-77
2022/06/03 04:22:22;;;;;;;3.75;3.45;;;9.70;99.90;;;;;;7387410;19;20372;-78
2022/06/03 04:24:57;;;;;;;4.38;3.40;;;9.90;99.90;;;;;;7388142;19;20451;-78
2022/06/03 04:27:40;;;;;;;3.50;3.20;;;10.00;99.90;;;;;;7389202;19;20325;-78
2022/06/03 04:30:38;;;;;;;2.90;2.70;;;10.10;99.90;;;;;;7389506;19;20351;-79
2022/06/03 04:33:07;;;;;;;3.80;3.50;;;10.30;99.90;;;;;;7282669;19;2004722;-80
2022/06/03 04:36:11;;;;;;;3.80;3.50;;;10.40;99.90;;;;;;7392272;19;20367;-80
2022/06/03 04:39:03;;;;;;;3.63;2.97;;;10.60;99.90;;;;;;7389134;19;20365;-80
2022/06/03 04:41:43;;;;;;;2.70;2.50;;;10.70;99.90;;;;;;7390041;19;20892;-81
2022/06/03 04:44:39;;;;;;;3.60;3.30;;;10.90;99.90;;;;;;7388972;19;20347;-80
2022/06/03 04:47:14;;;;;;;3.65;3.35;;;11.10;99.90;;;;;;7377896;19;20388;-79
2022/06/03 04:50:18;;;;;;;3.33;3.03;;;11.20;99.90;;;;;;7386892;19;20364;-79
2022/06/03 04:52:59;;;;;;;3.58;3.28;;;11.40;99.90;;;;;;7385197;19;20370;-79
2022/06/03 04:55:41;;;;;;;2.97;2.67;;;11.60;99.90;;;;;;7388008;19;20381;-83
2022/06/03 04:58:31;;;;;;;3.72;3.35;;;11.80;99.90;;;;;;7383292;19;20372;-78
2022/06/03 05:01:09;;;;;;;3.78;3.38;;;12.00;99.90;;;;;;7381832;19;20408;-78
2022/06/03 05:03:50;;;;;;;3.72;3.38;;;12.20;99.90;;;;;;7386277;19;20356;-79
2022/06/03 05:06:34;;;;;;;4.10;3.03;;;12.30;99.90;;;;;;7388714;19;20368;-79
2022/06/03 05:09:20;;;;;;;2.80;2.60;;;12.60;99.90;;;;;;7399280;19;20378;-80
2022/06/03 05:12:04;;;;;;;3.58;3.28;;;12.80;99.90;;;;;;7397249;19;21450;-82
2022/06/03 05:15:12;;;;;;;5.10;3.00;;;13.00;99.90;;;;;;7388779;19;20339;-80
2022/06/03 05:18:03;;;;;;;3.40;3.00;;;13.10;99.90;;;;;;7391927;19;20354;-88
2022/06/03 05:20:41;;;;;;;2.83;2.55;;;13.40;99.90;;;;;;7402259;19;20340;-85
2022/06/03 05:23:17;;;;;;;3.10;2.50;;;13.70;99.90;;;;;;7398810;19;20352;-82
2022/06/03 05:25:55;;;;;;;3.63;3.33;;;13.80;99.90;;;;;;7391339;19;20364;-85
2022/06/03 05:28:28;;;;;;;3.20;2.90;;;13.90;99.90;;;;;;7394265;19;20329;-84
2022/06/03 05:31:18;;;;;;;5.18;2.55;;;14.10;99.90;;;;;;7387830;19;20319;-81
2022/06/03 05:33:46;;;;;;;3.05;2.83;;;14.20;99.90;;;;;;7383099;19;20336;-81
2022/06/03 05:36:24;;;;;;;3.08;2.78;;;14.50;99.90;;;;;;7384372;19;20360;-84
2022/06/03 05:38:56;;;;;;;2.73;2.53;;;14.60;99.90;;;;;;7383753;19;20348;-84
2022/06/03 05:44:40;;;;;;;3.47;2.70;;;15.10;99.90;;;;;;7385421;19;20369;-86
2022/06/03 05:47:15;;;;;;;2.55;2.30;;;15.30;99.90;;;;;;7389902;19;20465;-88
2022/06/03 05:49:41;;;;;;;2.40;2.20;;;15.60;99.90;;;;;;7407803;19;20344;-87
2022/06/03 05:52:43;;;;;;;5.17;2.53;;;15.80;99.90;;;;;;7401311;19;20872;-86
2022/06/03 05:55:21;;;;;;;3.50;2.50;;;16.10;99.90;;;;;;7391246;19;20341;-85
2022/06/03 05:58:11;;;;;;;4.15;2.40;;;16.30;99.90;;;;;;7391087;19;20364;-84
2022/06/03 06:00:46;;;;;;;3.13;2.70;;;16.50;99.90;;;;;;7395208;19;20325;-84
2022/06/03 06:03:33;;;;;;;4.53;2.70;;;16.70;99.90;;;;;;7393954;19;20457;-82
2022/06/03 06:06:25;;;;;;;1.95;1.85;;;16.80;99.90;;;;;;7391685;19;20752;-91
2022/06/03 06:09:12;;;;;;;2.50;2.30;;;16.90;99.90;;;;;;7396046;19;20360;-82
2022/06/03 06:11:59;;;;;;;2.70;2.45;;;17.10;99.90;;;;;;7390728;19;20340;-83
2022/06/03 06:14:34;;;;;;;2.83;2.63;;;17.30;99.90;;;;;;7390604;19;20341;-81
2022/06/03 06:17:12;;;;;;;2.20;2.00;;;17.60;99.90;;;;;;7392313;19;20371;-87
2022/06/03 06:19:45;;;;;;;2.70;2.50;;;17.70;99.90;;;;;;7404214;19;20366;-82
2022/06/03 06:22:30;;;;;;;2.85;2.65;;;17.80;99.90;;;;;;7394482;19;20364;-85
2022/06/03 06:25:37;;;;;;;3.88;3.47;;;17.90;99.90;;;;;;7390246;19;20332;-82
2022/06/03 06:28:15;;;;;;;2.80;2.60;;;18.00;99.90;;;;;;7387126;19;20483;-83
2022/06/03 06:30:54;;;;;;;3.00;2.80;;;18.30;99.90;;;;;;7390980;19;20794;-87
2022/06/03 06:33:40;;;;;;;4.15;3.20;;;18.40;99.90;;;;;;7402286;19;20357;-88
2022/06/03 06:36:34;;;;;;;3.65;3.35;;;18.60;99.90;;;;;;7402756;19;20341;-86
2022/06/03 06:39:22;;;;;;;2.90;2.70;;;18.90;99.90;;;;;;7400315;19;20324;-90
2022/06/03 06:42:11;;;;;;;2.85;2.63;;;19.00;99.90;;;;;;7401220;19;20337;-88
2022/06/03 06:44:42;;;;;;;2.63;2.42;;;19.00;99.90;;;;;;7410035;19;20358;-86
2022/06/03 06:47:29;;;;;;;3.55;2.00;;;19.10;99.90;;;;;;7401037;19;20365;-86
2022/06/03 06:50:17;;;;;;;2.40;2.20;;;19.20;99.90;;;;;;7407852;19;20700;-86
2022/06/03 06:52:59;;;;;;;2.20;1.90;;;19.30;99.90;;;;;;7410255;19;20352;-84
2022/06/03 06:56:02;;;;;;;2.25;2.05;;;19.50;99.90;;;;;;7415352;19;20355;-84
2022/06/03 06:58:28;;;;;;;2.72;1.80;;;19.70;99.90;;;;;;7408832;19;20356;-84
2022/06/03 07:00:54;;;;;;;1.90;1.80;;;19.80;99.90;;;;;;7407985;19;20397;-85
2022/06/03 07:03:48;;;;;;;1.90;1.80;;;20.10;99.90;;;;;;7403534;19;20348;-86
2022/06/03 07:06:17;;;;;;;2.20;2.00;;;20.30;99.90;;;;;;7406061;19;20400;-86
2022/06/03 07:09:18;;;;;;;3.78;2.20;;;20.50;99.90;;;;;;7405039;19;20348;-90
2022/06/03 07:11:44;;;;;;;3.15;2.10;;;20.80;99.90;;;;;;7409416;19;20352;-84
2022/06/03 07:14:22;;;;;;;2.13;1.97;;;21.00;99.90;;;;;;7411795;19;20360;-87
2022/06/03 07:20:12;;;;;;;2.30;2.10;;;21.20;99.90;;;;;;7409728;19;20353;-87
2022/06/03 07:22:56;;;;;;;2.25;2.10;;;21.20;99.90;;;;;;7409296;19;21034;-83
2022/06/03 07:25:27;;;;;;;1.85;1.75;;;21.30;99.90;;;;;;7397384;19;20363;-86
2022/06/03 07:27:57;;;;;;;1.77;1.67;;;21.40;99.80;;;;;;7402242;19;20349;-90
2022/06/03 07:30:47;;;;;;;1.77;1.67;;;21.40;99.30;;;;;;7403878;19;20371;-89
2022/06/03 07:33:15;;;;;;;1.73;1.63;;;21.60;98.10;;;;;;7395399;19;20349;-87
2022/06/03 07:36:15;;;;;;;1.80;1.70;;;21.70;98.60;;;;;;7404668;19;20411;-86
2022/06/03 07:38:45;;;;;;;1.80;1.70;;;21.70;97.40;;;;;;7403823;19;20357;-85
2022/06/03 07:41:45;;;;;;;2.10;1.77;;;22.00;98.70;;;;;;7406457;19;20431;-91
2022/06/03 07:44:18;;;;;;;3.13;1.73;;;22.30;97.50;;;;;;7406761;19;20376;-86
2022/06/03 07:47:04;;;;;;;2.08;1.98;;;22.40;96.20;;;;;;7401541;19;20341;-88
2022/06/03 07:49:31;;;;;;;2.50;1.80;;;22.40;95.00;;;;;;7406899;19;20356;-87
2022/06/03 07:52:03;;;;;;;2.03;1.83;;;22.70;95.50;;;;;;7406468;19;20349;-89
2022/06/03 07:54:35;;;;;;;1.80;1.70;;;22.90;94.90;;;;;;7409157;19;20348;-86
2022/06/03 07:57:03;;;;;;;1.83;1.73;;;23.10;94.30;;;;;;7415070;19;20351;-90
2022/06/03 07:59:31;;;;;;;1.33;1.23;;;23.10;92.00;;;;;;7411812;19;20349;-89
2022/06/03 08:01:59;;;;;;;1.75;1.65;;;23.40;92.20;;;;;;7409146;19;20319;-89
2022/06/03 08:04:30;;;;;;;1.58;1.48;;;23.70;91.20;;;;;;7409603;19;20348;-87
2022/06/03 08:12:38;;;;;;;1.20;1.17;;;23.50;87.10;;;;;;7407102;19;20377;-90
2022/06/03 08:15:14;;;;;;;1.40;1.30;;;23.80;88.70;;;;;;7413189;19;20334;-91
2022/06/03 08:17:41;;;;;;;1.33;1.27;;;23.90;87.10;;;;;;7412813;19;20346;-92
2022/06/03 08:20:08;;;;;;;1.37;1.27;;;24.20;86.50;;;;;;7419857;19;20344;-89
2022/06/03 08:22:34;;;;;;;2.25;1.50;;;24.50;83.90;;;;;;7419317;19;20347;-91
2022/06/03 08:25:00;;;;;;;1.00;1.00;;;24.40;79.80;;;;;;7418892;19;20360;-89
2022/06/03 08:27:36;;;;;;;1.35;1.10;;;24.50;78.80;;;;;;7417048;19;20362;-92
2022/06/03 08:30:08;;;;;;;1.30;1.20;;;24.50;78.30;;;;;;7419927;19;20413;-91
2022/06/03 08:32:39;;;;;;;1.23;1.20;;;24.50;78.90;;;;;;7423457;19;20336;-87
2022/06/03 08:35:14;;;;;;;1.13;1.13;;;24.70;79.00;;;;;;7425855;19;20336;-91
2022/06/03 08:37:47;;;;;;;1.05;1.05;;;24.90;77.40;;;;;;7422565;19;20347;-82
2022/06/03 08:40:42;;;;;;;1.33;1.23;;;24.80;73.40;;;;;;7403517;19;20360;-74
2022/06/03 08:43:27;;;;;;;1.10;1.10;;;24.60;76.50;;;;;;7389266;19;20340;-77
2022/06/03 08:46:07;;;;;;;1.30;1.20;;;24.70;76.00;;;;;;7388187;19;20383;-81
2022/06/03 08:54:02;;;;;;;1.10;1.10;;;25.40;74.80;;;;;;7395035;19;20359;-73
2022/06/03 09:02:06;;;;;;;1.50;1.30;;;25.40;70.30;;;;;;7394014;19;20336;-73
2022/06/03 09:04:45;;;;;;;1.40;1.30;;;25.40;71.60;;;;;;7384386;19;20341;-73
2022/06/03 09:07:28;;;;;;;1.10;1.08;;;25.60;71.20;;;;;;7380563;19;20373;-78
2022/06/03 09:10:07;;;;;;;1.10;1.10;;;25.90;71.90;;;;;;7386780;19;20359;-74
2022/06/03 09:12:32;;;;;;;1.15;1.15;;;26.00;70.10;;;;;;7389177;19;20466;-78
2022/06/03 09:15:05;;;;;;;1.40;1.30;;;26.40;68.10;;;;;;7392527;19;21107;-74
2022/06/03 09:17:48;;;;;;;1.40;1.30;;;26.60;68.60;;;;;;7383362;19;20353;-74
2022/06/03 09:20:19;;;;;;;1.27;1.17;;;26.60;65.20;;;;;;7395539;19;20385;-79
2022/06/03 09:22:45;;;;;;;1.35;1.25;;;26.70;64.40;;;;;;7386307;19;20393;-78
2022/06/03 09:25:11;;;;;;;1.30;1.20;;;27.00;64.60;;;;;;7386117;19;20361;-78
2022/06/03 09:27:37;;;;;;;1.50;1.40;;;27.10;69.20;;;;;;7380496;19;20364;-77
2022/06/03 09:30:04;;;;;;;2.63;1.33;;;27.20;65.70;;;;;;7384790;19;21204;-75
2022/06/03 09:32:31;;;;;;;1.20;1.20;;;27.40;66.70;;;;;;7384376;19;20349;-78
2022/06/03 09:35:01;;;;;;;1.40;1.30;;;27.80;68.20;;;;;;7383409;19;20368;-78
2022/06/03 09:37:27;;;;;;;1.20;1.10;;;28.40;66.00;;;;;;7376097;19;20361;-78
2022/06/03 09:39:52;;;;;;;1.60;1.50;;;28.80;64.70;;;;;;7379081;19;21635;-76
2022/06/03 09:42:18;;;;;;;1.10;1.10;;;28.30;61.10;;;;;;7381420;19;20938;-79
2022/06/03 09:44:44;;;;;;;1.45;1.35;;;28.40;65.90;;;;;;7382965;19;20348;-76
2022/06/03 09:47:10;;;;;;;2.38;1.50;;;28.40;64.00;;;;;;7381203;19;20377;-80
2022/06/03 09:49:35;;;;;;;1.50;1.40;;;28.50;61.40;;;;;;7385198;19;20368;-78
2022/06/03 09:52:03;;;;;;;1.93;1.60;;;28.90;61.90;;;;;;7384069;19;20352;-72
2022/06/03 09:54:37;;;;;;;1.25;1.15;;;29.20;63.70;;;;;;7378305;19;20922;-73
2022/06/03 09:57:31;;;;;;;1.33;1.25;;;29.50;60.70;;;;;;7372640;19;20372;-73
2022/06/03 10:00:03;;;;;;;1.65;1.55;;;29.90;63.00;;;;;;7373020;19;20364;-71
2022/06/03 10:02:38;;;;;;;1.70;1.60;;;29.90;58.80;;;;;;7380254;19;20332;-72
2022/06/03 10:05:04;;;;;;;1.40;1.30;;;30.00;58.90;;;;;;7381147;19;20352;-71
2022/06/03 10:07:30;;;;;;;1.20;1.20;;;29.60;57.40;;;;;;7375496;19;20702;-71
2022/06/03 10:12:49;;;;;;;1.58;1.23;;;29.70;58.20;;;;;;7381694;19;20348;-72
2022/06/03 10:15:38;;;;;;;1.10;1.10;;;30.00;58.80;;;;;;7378923;19;20985;-72
2022/06/03 10:18:21;;;;;;;1.47;1.37;;;30.30;59.10;;;;;;7371922;19;20369;-71
2022/06/03 10:20:48;;;;;;;1.40;1.10;;;29.70;54.60;;;;;;7378941;19;20372;-72
2022/06/03 10:23:14;;;;;;;1.10;1.10;;;30.30;60.00;;;;;;7381086;19;20392;-72
2022/06/03 10:25:41;;;;;;;2.00;1.52;;;30.70;56.90;;;;;;7379199;19;20721;-71
2022/06/03 10:28:08;;;;;;;1.50;1.40;;;30.90;55.90;;;;;;7371572;19;20401;-70
2022/06/03 10:30:35;;;;;;;1.20;1.20;;;30.90;55.20;;;;;;7376846;19;20316;-72
2022/06/03 10:33:02;;;;;;;1.20;1.20;;;30.80;54.40;;;;;;7380691;19;20345;-72
2022/06/03 10:35:31;;;;;;;1.10;1.10;;;30.80;52.90;;;;;;7378523;19;20719;-72
2022/06/03 10:37:58;;;;;;;1.30;1.20;;;30.90;56.60;;;;;;7368599;19;20349;-73
2022/06/03 10:40:26;;;;;;;1.23;1.20;;;31.00;54.40;;;;;;7375670;19;20348;-74
2022/06/03 10:42:57;;;;;;;1.40;1.30;;;31.20;55.30;;;;;;7375599;19;20356;-71
2022/06/03 10:45:30;;;;;;;1.30;1.30;;;31.50;54.30;;;;;;7376324;19;20479;-74
2022/06/03 10:47:55;;;;;;;1.40;1.10;;;31.50;56.10;;;;;;7370803;19;21151;-74
2022/06/03 10:50:28;;;;;;;1.20;1.20;;;31.70;53.20;;;;;;7375251;19;20912;-74
2022/06/03 11:01:40;;;;;;;1.30;1.20;;;32.50;53.70;;;;;;7374418;19;20341;-74
2022/06/03 11:04:05;;;;;;;1.33;1.23;;;33.40;51.70;;;;;;7375849;19;20373;-72
2022/06/03 11:06:36;;;;;;;1.10;1.10;;;33.30;49.70;;;;;;7370062;19;20353;-72
2022/06/03 11:09:05;;;;;;;2.85;1.48;;;32.80;49.80;;;;;;7374333;19;20377;-73
2022/06/03 11:11:38;;;;;;;1.50;1.35;;;33.00;48.70;;;;;;7376066;19;20356;-72
2022/06/03 11:14:26;;;;;;;1.50;1.40;;;32.70;50.40;;;;;;7375159;19;20359;-73
2022/06/03 11:17:21;;;;;;;1.50;1.20;;;32.70;50.30;;;;;;7371005;19;20348;-73
2022/06/03 11:19:48;;;;;;;3.30;1.30;;;32.90;49.60;;;;;;7372368;19;20449;-73
2022/06/03 11:22:16;;;;;;;3.50;1.30;;;33.20;49.80;;;;;;7377205;19;20359;-73
2022/06/03 11:24:44;;;;;;;1.35;1.25;;;33.40;49.10;;;;;;7372855;19;20783;-73
2022/06/03 11:27:10;;;;;;;1.40;1.30;;;33.50;49.90;;;;;;7365694;19;20369;-73
2022/06/03 11:29:37;;;;;;;1.50;1.40;;;32.70;47.50;;;;;;7374037;19;20689;-74
2022/06/03 11:32:03;;;;;;;1.20;1.10;;;32.50;46.70;;;;;;7375226;19;20364;-72
2022/06/03 11:34:32;;;;;;;1.70;1.30;;;32.70;48.10;;;;;;7376844;19;21005;-73
2022/06/03 11:37:01;;;;;;;1.47;1.30;;;33.10;48.00;;;;;;7371639;19;20374;-72
2022/06/03 11:39:36;;;;;;;1.48;1.38;;;33.80;50.70;;;;;;7369808;19;20374;-73
2022/06/03 11:42:06;;;;;;;1.40;1.30;;;34.00;46.80;;;;;;7374220;19;20354;-72
2022/06/03 11:44:54;;;;;;;1.40;1.30;;;34.00;47.80;;;;;;7373956;19;20392;-73
2022/06/03 11:47:27;;;;;;;1.60;1.50;;;33.10;49.00;;;;;;7368431;19;20365;-73
2022/06/03 11:49:53;;;;;;;1.55;1.45;;;31.80;45.70;;;;;;7373484;19;20853;-72
2022/06/03 11:52:18;;;;;;;1.50;1.40;;;31.60;45.60;;;;;;7375804;19;20439;-72
2022/06/03 11:54:44;;;;;;;1.40;1.30;;;31.10;46.30;;;;;;7375362;19;20344;-73
2022/06/03 11:57:10;;;;;;;1.20;1.20;;;32.10;50.30;;;;;;7375953;19;20451;-73
2022/06/03 11:59:44;;;;;;;1.50;1.40;;;32.80;48.20;;;;;;7376540;19;20371;-73
2022/06/03 12:02:16;;;;;;;1.65;1.35;;;31.80;44.40;;;;;;7381777;19;20357;-73
2022/06/03 12:04:49;;;;;;;1.40;1.30;;;32.40;49.50;;;;;;7382287;19;20352;-73
2022/06/03 12:07:36;;;;;;;1.67;1.30;;;32.70;48.00;;;;;;7376439;19;20367;-73
2022/06/03 12:10:04;;;;;;;1.60;1.50;;;33.30;48.70;;;;;;7378607;19;20364;-72
2022/06/03 12:15:38;;;;;;;1.20;1.20;;;34.30;49.20;;;;;;7381453;19;20340;-73
2022/06/03 12:18:07;;;;;;;1.50;1.40;;;34.40;45.50;;;;;;7370592;19;20435;-73
2022/06/03 12:20:32;;;;;;;1.50;1.40;;;34.60;45.90;;;;;;7382283;19;20366;-73
2022/06/03 12:23:46;;;;;;;1.47;1.37;;;34.20;44.30;;;;;;7382598;19;20368;-74
2022/06/03 12:26:29;;;;;;;1.73;1.33;;;33.20;46.80;;;;;;7377102;19;20448;-73
2022/06/03 12:29:09;;;;;;;1.55;1.45;;;33.40;48.30;;;;;;7374540;19;20363;-75
2022/06/03 12:31:42;;;;;;;1.65;1.55;;;34.10;47.60;;;;;;7381753;19;20368;-75
2022/06/03 12:34:20;;;;;;;1.23;1.23;;;34.60;46.30;;;;;;7381464;19;20332;-73
2022/06/03 12:36:52;;;;;;;1.65;1.55;;;34.80;45.20;;;;;;7380477;19;20388;-74
2022/06/03 12:39:34;;;;;;;3.45;1.60;;;33.80;42.30;;;;;;7381860;19;20360;-74
2022/06/03 12:42:08;;;;;;;2.15;1.20;;;34.20;45.70;;;;;;7379509;19;20467;-75
2022/06/03 12:44:35;;;;;;;1.40;1.30;;;35.00;45.80;;;;;;7381756;19;20901;-74
2022/06/03 12:47:42;;;;;;;1.40;1.30;;;35.00;45.10;;;;;;7376690;19;20368;-74
2022/06/03 12:50:07;;;;;;;1.17;1.17;;;34.60;43.60;;;;;;7381304;19;20401;-74
2022/06/03 12:52:33;;;;;;;1.37;1.30;;;34.60;44.30;;;;;;7386480;19;21084;-74
2022/06/03 12:54:58;;;;;;;1.30;1.20;;;34.00;43.30;;;;;;7383392;19;20341;-74
2022/06/03 12:57:49;;;;;;;2.17;1.38;;;34.60;45.00;;;;;;7372878;19;20436;-76
2022/06/03 13:00:18;;;;;;;1.35;1.25;;;34.20;43.70;;;;;;7380970;19;20368;-75
2022/06/03 13:02:58;;;;;;;1.50;1.40;;;34.60;47.90;;;;;;7382572;19;21094;-75
2022/06/03 13:05:41;;;;;;;1.33;1.25;;;34.90;43.40;;;;;;7379492;19;20389;-76
2022/06/03 13:08:07;;;;;;;1.30;1.20;;;35.00;44.40;;;;;;7373970;19;21123;-77
2022/06/03 13:10:53;;;;;;;1.50;1.40;;;35.80;45.50;;;;;;7380649;19;20870;-77
2022/06/03 13:13:28;;;;;;;1.45;1.35;;;36.20;42.30;;;;;;7382460;19;20372;-77
2022/06/03 13:16:13;;;;;;;2.13;1.60;;;35.00;41.40;;;;;;7380362;19;20349;-74
2022/06/03 13:18:40;;;;;;;2.00;1.63;;;35.60;43.50;;;;;;7376425;19;20389;-74
2022/06/03 13:21:06;;;;;;;1.75;1.65;;;36.00;44.80;;;;;;7380979;19;20348;-74
2022/06/03 13:23:37;;;;;;;1.50;1.40;;;35.90;41.70;;;;;;7382712;19;20332;-75
2022/06/03 13:26:25;;;;;;;2.05;1.48;;;36.10;43.50;;;;;;7380459;19;20356;-75
2022/06/03 13:28:51;;;;;;;1.48;1.40;;;35.70;41.50;;;;;;7380801;19;20360;-74
2022/06/03 13:31:38;;;;;;;1.45;1.35;;;33.90;41.50;;;;;;7380746;19;20337;-75
2022/06/03 13:34:12;;;;;;;1.20;1.20;;;34.00;45.30;;;;;;7382847;19;20363;-78
2022/06/03 13:36:51;;;;;;;1.50;1.40;;;34.40;43.50;;;;;;7374666;19;21252;-74
2022/06/03 13:39:23;;;;;;;1.80;1.40;;;34.50;42.80;;;;;;7377937;19;20726;-75
2022/06/03 13:44:43;;;;;;;1.98;1.40;;;34.10;41.80;;;;;;7377997;19;20344;-74
2022/06/03 13:47:10;;;;;;;1.50;1.40;;;34.40;44.30;;;;;;7373292;19;20428;-74
2022/06/03 13:49:36;;;;;;;1.50;1.40;;;33.80;40.60;;;;;;7378210;19;20793;-75
2022/06/03 13:52:08;;;;;;;1.40;1.30;;;33.00;43.20;;;;;;7381205;19;20408;-76
2022/06/03 13:54:36;;;;;;;1.30;1.30;;;33.70;43.20;;;;;;7378952;19;20701;-78
2022/06/03 13:57:36;;;;;;;1.40;1.30;;;34.00;42.10;;;;;;7377416;19;20365;-74
2022/06/03 14:00:16;;;;;;;2.57;1.60;;;33.30;43.50;;;;;;7376396;19;20471;-74
2022/06/03 14:02:42;;;;;;;1.40;1.30;;;32.80;41.10;;;;;;7274405;19;2013578;-75
2022/06/03 14:05:09;;;;;;;2.20;1.60;;;33.20;42.90;;;;;;7380364;19;20337;-74
2022/06/03 14:07:53;;;;;;;1.40;1.30;;;33.40;43.20;;;;;;7373648;19;20349;-74
2022/06/03 14:10:21;;;;;;;1.50;1.40;;;34.00;42.90;;;;;;7377325;19;20388;-77
2022/06/03 14:13:30;;;;;;;1.30;1.20;;;34.30;42.50;;;;;;7379399;19;20360;-75
2022/06/03 14:16:17;;;;;;;1.20;1.20;;;34.10;42.60;;;;;;7376555;19;20360;-75
2022/06/03 14:18:52;;;;;;;1.33;1.23;;;34.50;41.40;;;;;;7377113;19;20364;-74
2022/06/03 14:21:25;;;;;;;1.33;1.23;;;34.70;44.50;;;;;;7376224;19;20379;-74
2022/06/03 14:23:51;;;;;;;1.15;1.15;;;34.30;41.40;;;;;;7379395;19;20364;-75
2022/06/03 14:26:23;;;;;;;1.23;1.13;;;34.30;42.20;;;;;;7376137;19;20377;-76
2022/06/03 14:28:55;;;;;;;1.30;1.20;;;35.30;42.50;;;;;;7375638;19;21263;-76
2022/06/03 14:31:24;;;;;;;1.20;1.13;;;36.30;41.90;;;;;;7380714;19;20645;-75
2022/06/03 14:33:51;;;;;;;1.40;1.30;;;36.60;38.60;;;;;;7378263;19;20900;-77
2022/06/03 14:36:18;;;;;;;1.30;1.30;;;36.30;38.20;;;;;;7376435;19;20989;-75
2022/06/03 14:38:55;;;;;;;1.40;1.30;;;36.10;37.80;;;;;;7378684;19;20364;-76
2022/06/03 14:41:23;;;;;;;1.40;1.30;;;35.20;38.70;;;;;;7378437;19;20364;-77